createdAt,value
2022-09-24T00:01:30.439Z,100176.55
2022-09-24T00:04:03.275Z,100172.68
2022-09-24T00:06:31.790Z,100167.84
2022-09-24T00:08:59.088Z,100167.91
2022-09-24T00:11:28.184Z,100168.48
2022-09-24T00:13:58.737Z,100168.75
2022-09-24T00:16:30.800Z,100172.93
2022-09-24T00:18:59.448Z,100173.20
2022-09-24T00:21:32.251Z,100166.27
2022-09-24T00:24:02.098Z,100166.25
2022-09-24T00:26:48.147Z,100162.77
2022-09-24T00:29:19.587Z,100160.02
2022-09-24T00:31:47.211Z,100157.40
2022-09-24T00:34:15.054Z,100159.99
2022-09-24T00:36:42.573Z,100158.37
2022-09-24T00:39:09.843Z,100153.59
2022-09-24T00:41:38.931Z,100145.51
2022-09-24T00:44:43.388Z,100143.11
2022-09-24T00:47:38.344Z,100138.21
2022-09-24T00:50:15.348Z,100134.44
2022-09-24T00:52:53.808Z,100131.44
2022-09-24T00:55:22.476Z,100135.02
2022-09-24T00:57:52.688Z,100133.70
2022-09-24T01:00:20.194Z,100135.07
2022-09-24T01:02:48.281Z,100132.77
2022-09-24T01:05:15.628Z,100123.41
2022-09-24T01:07:43.107Z,100121.86
2022-09-24T01:10:11.269Z,100116.25
2022-09-24T01:12:41.325Z,100118.86
2022-09-24T01:15:12.327Z,100114.23
2022-09-24T01:18:03.246Z,100110.77
2022-09-24T01:20:38.481Z,100116.10
2022-09-24T01:23:24.678Z,100113.97
2022-09-24T01:26:20.270Z,100111.01
2022-09-24T01:29:43.871Z,100109.75
2022-09-24T01:32:23.508Z,100104.46
2022-09-24T01:35:04.579Z,100105.12
2022-09-24T01:37:34.239Z,100106.85
2022-09-24T01:40:03.688Z,100105.52
2022-09-24T01:42:31.823Z,100102.63
2022-09-24T01:45:00.668Z,100105.95
2022-09-24T01:47:40.705Z,100104.34
2022-09-24T01:50:12.532Z,100105.26
2022-09-24T01:53:06.552Z,100107.05
2022-09-24T01:55:38.660Z,100096.51
2022-09-24T01:58:09.482Z,100100.98
2022-09-24T02:00:39.631Z,100102.17
2022-09-24T02:03:17.064Z,100101.27
2022-09-24T02:06:11.325Z,100095.37
2022-09-24T02:08:41.045Z,100092.67
2022-09-24T02:11:14.431Z,100091.17
2022-09-24T02:13:50.776Z,100090.41
2022-09-24T02:16:22.122Z,100089.63
2022-09-24T02:18:53.385Z,100089.54
2022-09-24T02:21:23.208Z,100090.30
2022-09-24T02:24:24.776Z,100086.59
2022-09-24T02:26:52.417Z,100086.38
2022-09-24T02:29:19.676Z,100087.73
2022-09-24T02:31:50.867Z,100087.76
2022-09-24T02:34:21.794Z,100085.48
2022-09-24T02:36:54.344Z,100082.08
2022-09-24T02:39:21.895Z,100079.50
2022-09-24T02:41:50.586Z,100072.84
2022-09-24T02:44:19.657Z,100073.12
2022-09-24T02:46:47.517Z,100067.60
2022-09-24T02:49:15.951Z,100069.73
2022-09-24T02:51:44.042Z,100069.98
2022-09-24T02:54:12.387Z,100070.84
2022-09-24T02:56:40.275Z,100068.77
2022-09-24T02:59:07.953Z,100068.02
2022-09-24T03:01:36.023Z,100066.05
2022-09-24T03:04:03.628Z,100071.64
2022-09-24T03:06:31.008Z,100068.94
2022-09-24T03:08:58.668Z,100070.66
2022-09-24T03:11:26.208Z,100068.59
2022-09-24T03:13:54.388Z,100065.44
2022-09-24T03:16:21.897Z,100063.10
2022-09-24T03:18:49.933Z,100065.51
2022-09-24T03:21:19.724Z,100063.55
2022-09-24T03:23:47.607Z,100060.09
2022-09-24T03:26:15.446Z,100064.36
2022-09-24T03:28:42.709Z,100063.95
2022-09-24T03:31:10.400Z,100064.20
2022-09-24T03:33:43.136Z,100060.60
2022-09-24T03:36:16.545Z,100058.59
2022-09-24T03:38:45.231Z,100057.64
2022-09-24T03:41:13.194Z,100055.01
2022-09-24T03:43:41.168Z,100049.66
2022-09-24T03:46:09.467Z,100049.78
2022-09-24T03:48:38.897Z,100051.41
2022-09-24T03:51:15.004Z,100050.13
2022-09-24T03:53:42.665Z,100044.31
2022-09-24T03:56:10.116Z,100046.77
2022-09-24T03:58:38.319Z,100045.19
2022-09-24T04:01:10.371Z,100044.50
2022-09-24T04:03:38.128Z,100037.63
2022-09-24T04:06:06.309Z,100040.27
2022-09-24T04:08:33.885Z,100039.26
2022-09-24T04:11:01.512Z,100039.00
2022-09-24T04:13:29.506Z,100037.88
2022-09-24T04:15:57.005Z,100037.46
2022-09-24T04:18:24.334Z,100038.52
2022-09-24T04:20:51.643Z,100032.44
2022-09-24T04:23:18.808Z,100030.58
2022-09-24T04:25:45.989Z,100027.75
2022-09-24T04:28:14.243Z,100030.52
2022-09-24T04:30:41.388Z,100030.94
2022-09-24T04:33:09.034Z,100029.35
2022-09-24T04:35:36.695Z,100030.55
2022-09-24T04:38:06.930Z,100031.83
2022-09-24T04:40:34.371Z,100028.10
2022-09-24T04:43:03.463Z,100027.04
2022-09-24T04:45:30.924Z,100029.44
2022-09-24T04:47:58.490Z,100021.45
2022-09-24T04:50:27.733Z,100027.58
2022-09-24T04:52:56.276Z,100023.36
2022-09-24T04:55:23.816Z,100024.39
2022-09-24T04:57:51.494Z,100021.42
2022-09-24T05:00:20.642Z,100022.86
2022-09-24T05:02:48.811Z,100019.70
2022-09-24T05:05:17.255Z,100017.14
2022-09-24T05:07:45.110Z,100018.52
2022-09-24T05:10:13.166Z,100007.45
2022-09-24T05:12:41.476Z,100017.73
2022-09-24T05:15:09.208Z,100018.59
2022-09-24T05:17:40.569Z,100015.41
2022-09-24T05:20:11.366Z,100012.91
2022-09-24T05:22:46.569Z,100021.70
2022-09-24T05:25:15.144Z,100016.23
2022-09-24T05:27:53.652Z,100018.80
2022-09-24T05:30:22.811Z,100022.28
2022-09-24T05:32:52.575Z,100017.40
2022-09-24T05:35:21.980Z,100009.98
2022-09-24T05:37:49.989Z,100013.20
2022-09-24T05:40:36.181Z,100013.42
2022-09-24T05:43:04.782Z,100014.55
2022-09-24T05:45:32.979Z,100014.82
2022-09-24T05:48:00.539Z,100010.15
2022-09-24T05:50:29.305Z,100007.39
2022-09-24T05:52:57.503Z,100013.25
2022-09-24T05:55:27.712Z,100018.06
2022-09-24T05:58:07.648Z,100020.80
2022-09-24T06:00:35.959Z,100024.08
2022-09-24T06:03:06.050Z,100025.21
2022-09-24T06:05:35.931Z,100025.33
2022-09-24T06:08:04.599Z,100024.29
2022-09-24T06:10:32.526Z,100026.16
2022-09-24T06:13:05.536Z,100025.59
2022-09-24T06:15:33.254Z,100022.23
2022-09-24T06:18:00.616Z,100020.77
2022-09-24T06:20:28.281Z,100018.05
2022-09-24T06:22:58.069Z,100019.98
2022-09-24T06:25:26.399Z,100018.80
2022-09-24T06:27:58.791Z,100022.05
2022-09-24T06:30:26.754Z,100022.90
2022-09-24T06:32:55.087Z,100025.40
2022-09-24T06:35:22.759Z,100024.22
2022-09-24T06:37:49.993Z,100021.36
2022-09-24T06:40:17.722Z,100022.05
2022-09-24T06:42:45.111Z,100021.70
2022-09-24T06:45:13.608Z,100020.34
2022-09-24T06:47:41.258Z,100024.27
2022-09-24T06:50:09.305Z,100025.57
2022-09-24T06:52:36.707Z,100024.89
2022-09-24T06:55:06.219Z,100024.27
2022-09-24T06:57:33.741Z,100020.32
2022-09-24T07:00:00.968Z,100024.92
2022-09-24T07:02:29.006Z,100023.91
2022-09-24T07:04:56.745Z,100026.10
2022-09-24T07:07:30.065Z,100029.34
2022-09-24T07:09:58.394Z,100028.88
2022-09-24T07:12:26.064Z,100028.70
2022-09-24T07:14:53.644Z,100037.23
2022-09-24T07:17:21.287Z,100036.26
2022-09-24T07:19:48.849Z,100038.67
2022-09-24T07:22:16.705Z,100043.14
2022-09-24T07:24:45.059Z,100044.18
2022-09-24T07:27:13.487Z,100047.13
2022-09-24T07:29:41.290Z,100046.66
2022-09-24T07:32:09.006Z,100047.36
2022-09-24T07:34:36.491Z,100053.22
2022-09-24T07:37:03.923Z,100056.12
2022-09-24T07:39:31.888Z,100059.76
2022-09-24T07:41:59.155Z,100060.34
2022-09-24T07:44:27.019Z,100062.75
2022-09-24T07:46:54.398Z,100066.89
2022-09-24T07:49:23.690Z,100072.44
2022-09-24T07:51:51.311Z,100077.88
2022-09-24T07:54:19.324Z,100077.49
2022-09-24T07:56:47.550Z,100075.27
2022-09-24T07:59:15.548Z,100070.29
2022-09-24T08:01:43.346Z,100066.71
2022-09-24T08:04:11.175Z,100064.52
2022-09-24T08:06:45.063Z,100063.02
2022-09-24T08:09:16.806Z,100061.54
2022-09-24T08:11:44.272Z,100061.23
2022-09-24T08:14:11.974Z,100055.95
2022-09-24T08:16:41.353Z,100048.48
2022-09-24T08:19:14.533Z,100050.16
2022-09-24T08:21:41.993Z,100043.15
2022-09-24T08:24:09.518Z,100044.72
2022-09-24T08:26:37.224Z,100038.85
2022-09-24T08:29:04.887Z,100037.13
2022-09-24T08:31:34.527Z,100035.36
2022-09-24T08:34:02.890Z,100035.03
2022-09-24T08:36:30.134Z,100033.30
2022-09-24T08:38:57.888Z,100028.88
2022-09-24T08:41:33.586Z,100026.82
2022-09-24T08:44:03.225Z,100024.33
2022-09-24T08:46:55.844Z,100026.39
2022-09-24T08:49:31.012Z,100025.30
2022-09-24T08:52:07.280Z,100030.23
2022-09-24T08:54:35.670Z,100028.80
2022-09-24T08:57:07.119Z,100027.45
2022-09-24T08:59:38.345Z,100023.30
2022-09-24T09:02:44.901Z,100025.33
2022-09-24T09:05:28.327Z,100021.89
2022-09-24T09:08:03.192Z,100027.52
2022-09-24T09:10:36.335Z,100029.23
2022-09-24T09:13:26.021Z,100031.02
2022-09-24T09:16:07.353Z,100033.03
2022-09-24T09:18:38.356Z,100031.59
2022-09-24T09:21:18.827Z,100025.38
2022-09-24T09:23:51.516Z,100023.05
2022-09-24T09:26:20.986Z,100019.50
2022-09-24T09:28:49.809Z,100024.51
2022-09-24T09:31:36.495Z,100026.70
2022-09-24T09:34:30.191Z,100024.09
2022-09-24T09:37:28.877Z,100024.42
2022-09-24T09:39:58.808Z,100029.95
2022-09-24T09:42:36.505Z,100027.66
2022-09-24T09:45:08.148Z,100029.98
2022-09-24T09:47:42.141Z,100025.53
2022-09-24T09:50:28.660Z,100026.39
2022-09-24T09:52:56.725Z,100027.85
2022-09-24T09:55:31.602Z,100028.83
2022-09-24T09:58:17.334Z,100028.41
2022-09-24T10:00:48.851Z,100031.34
2022-09-24T10:03:29.067Z,100029.04
2022-09-24T10:06:01.891Z,100030.10
2022-09-24T10:08:30.261Z,100030.30
2022-09-24T10:10:59.629Z,100028.98
2022-09-24T10:13:28.293Z,100028.86
2022-09-24T10:15:56.527Z,100024.95
2022-09-24T10:18:46.288Z,100022.77
2022-09-24T10:21:28.294Z,100018.30
2022-09-24T10:23:59.862Z,100021.20
2022-09-24T10:26:44.747Z,100025.87
2022-09-24T10:29:39.889Z,100030.10
2022-09-24T10:32:15.624Z,100031.27
2022-09-24T10:34:43.102Z,100026.46
2022-09-24T10:37:15.949Z,100025.02
2022-09-24T10:39:43.936Z,100028.31
2022-09-24T10:42:25.635Z,100025.77
2022-09-24T10:44:54.387Z,100023.65
2022-09-24T10:47:38.685Z,100020.13
2022-09-24T10:50:13.902Z,100019.77
2022-09-24T10:52:47.195Z,100019.34
2022-09-24T10:55:15.986Z,100020.64
2022-09-24T10:58:00.586Z,100023.05
2022-09-24T11:00:38.148Z,100023.15
2022-09-24T11:03:33.453Z,100021.25
2022-09-24T11:06:31.829Z,100019.77
2022-09-24T11:09:17.621Z,100016.77
2022-09-24T11:12:08.629Z,100009.16
2022-09-24T11:14:42.130Z,100008.56
2022-09-24T11:17:32.007Z,100004.87
2022-09-24T11:20:34.788Z,100002.61
2022-09-24T11:23:08.813Z,99997.03
2022-09-24T11:26:02.320Z,99997.08
2022-09-24T11:28:57.894Z,99995.52
2022-09-24T11:32:12.861Z,99994.00
2022-09-24T11:35:07.133Z,99995.98
2022-09-24T11:37:42.895Z,99999.16
2022-09-24T11:40:22.039Z,99997.58
2022-09-24T11:42:54.179Z,99998.09
2022-09-24T11:45:30.650Z,99998.51
2022-09-24T11:48:15.131Z,99997.01
2022-09-24T11:51:00.229Z,99995.78
2022-09-24T11:53:34.608Z,99993.98
2022-09-24T11:56:13.779Z,99990.16
2022-09-24T11:58:55.822Z,99989.27
2022-09-24T12:01:29.854Z,99986.63
2022-09-24T12:04:11.912Z,99985.89
2022-09-24T12:06:59.036Z,99978.80
2022-09-24T12:09:40.472Z,99972.45
2022-09-24T12:12:13.419Z,99968.48
2022-09-24T12:14:55.004Z,99971.01
2022-09-24T12:17:29.841Z,99968.12
2022-09-24T12:20:02.234Z,99970.42
2022-09-24T12:22:30.363Z,99971.63
2022-09-24T12:25:00.914Z,99971.78
2022-09-24T12:27:34.975Z,99971.52
2022-09-24T12:30:39.623Z,99962.36
2022-09-24T12:33:31.992Z,99961.78
2022-09-24T12:36:22.206Z,99960.16
2022-09-24T12:38:56.205Z,99952.34
2022-09-24T12:41:33.389Z,99949.42
2022-09-24T12:44:04.715Z,99943.67
2022-09-24T12:46:33.795Z,99942.46
2022-09-24T12:49:01.484Z,99943.29
2022-09-24T12:51:37.341Z,99941.67
2022-09-24T12:54:18.788Z,99934.48
2022-09-24T12:56:46.688Z,99937.34
2022-09-24T12:59:27.789Z,99938.66
2022-09-24T13:01:55.998Z,99939.18
2022-09-24T13:04:27.236Z,99936.59
2022-09-24T13:06:54.444Z,99932.96
2022-09-24T13:09:37.014Z,99937.74
2022-09-24T13:12:32.407Z,99937.58
2022-09-24T13:15:03.034Z,99936.71
2022-09-24T13:17:35.333Z,99933.84
2022-09-24T13:20:09.510Z,99933.71
2022-09-24T13:22:38.276Z,99931.88
2022-09-24T13:25:08.801Z,99928.14
2022-09-24T13:27:41.851Z,99927.20
2022-09-24T13:30:09.570Z,99928.48
2022-09-24T13:32:47.541Z,99921.69
2022-09-24T13:35:21.956Z,99922.73
2022-09-24T13:38:20.968Z,99917.58
2022-09-24T13:41:03.156Z,99915.19
2022-09-24T13:43:46.110Z,99909.70
2022-09-24T13:46:18.291Z,99903.50
2022-09-24T13:48:57.380Z,99905.95
2022-09-24T13:51:28.337Z,99905.39
2022-09-24T13:54:17.790Z,99904.32
2022-09-24T13:57:13.508Z,99904.89
2022-09-24T13:59:40.860Z,99907.05
2022-09-24T14:02:28.336Z,99903.08
2022-09-24T14:04:59.699Z,99901.13
2022-09-24T14:07:27.820Z,99902.05
2022-09-24T14:10:15.248Z,99902.63
2022-09-24T14:12:42.809Z,99901.61
2022-09-24T14:15:16.039Z,99901.04
2022-09-24T14:17:43.743Z,99904.98
2022-09-24T14:20:14.484Z,99907.02
2022-09-24T14:22:44.110Z,99910.52
2022-09-24T14:25:18.117Z,99909.84
2022-09-24T14:27:50.500Z,99904.98
2022-09-24T14:30:26.289Z,99902.67
2022-09-24T14:33:09.551Z,99902.30
2022-09-24T14:35:40.890Z,99900.52
2022-09-24T14:38:13.654Z,99899.96
2022-09-24T14:40:49.179Z,99899.92
2022-09-24T14:43:32.249Z,99900.48
2022-09-24T14:46:28.317Z,99901.96
2022-09-24T14:49:27.103Z,99901.52
2022-09-24T14:51:59.556Z,99900.02
2022-09-24T14:54:32.376Z,99892.59
2022-09-24T14:57:18.525Z,99892.86
2022-09-24T14:59:47.401Z,99895.25
2022-09-24T15:02:23.159Z,99894.02
2022-09-24T15:04:53.755Z,99889.77
2022-09-24T15:07:26.357Z,99887.51
2022-09-24T15:09:56.232Z,99889.11
2022-09-24T15:12:35.595Z,99885.25
2022-09-24T15:15:17.719Z,99883.52
2022-09-24T15:17:47.279Z,99885.94
2022-09-24T15:20:15.783Z,99892.37
2022-09-24T15:22:45.611Z,99891.70
2022-09-24T15:25:17.549Z,99890.30
2022-09-24T15:27:45.589Z,99888.80
2022-09-24T15:30:22.629Z,99884.77
2022-09-24T15:32:50.608Z,99884.35
2022-09-24T15:35:19.958Z,99883.95
2022-09-24T15:37:49.208Z,99882.25
2022-09-24T15:40:23.719Z,99881.81
2022-09-24T15:42:52.667Z,99889.08
2022-09-24T15:45:27.195Z,99888.33
2022-09-24T15:47:55.230Z,99890.92
2022-09-24T15:50:23.279Z,99889.89
2022-09-24T15:53:01.185Z,99890.95
2022-09-24T15:55:31.572Z,99887.72
2022-09-24T15:57:58.872Z,99887.54
2022-09-24T16:00:27.437Z,99892.52
2022-09-24T16:02:57.101Z,99894.17
2022-09-24T16:05:25.038Z,99895.02
2022-09-24T16:07:53.549Z,99891.85
2022-09-24T16:10:21.086Z,99890.35
2022-09-24T16:12:50.971Z,99888.59
2022-09-24T16:15:19.548Z,99888.85
2022-09-24T16:17:50.386Z,99888.19
2022-09-24T16:20:17.951Z,99890.24
2022-09-24T16:22:45.514Z,99893.53
2022-09-24T16:25:15.617Z,99893.36
2022-09-24T16:27:42.980Z,99899.45
2022-09-24T16:30:13.654Z,99901.05
2022-09-24T16:32:41.068Z,99903.56
2022-09-24T16:35:11.686Z,99903.63
2022-09-24T16:37:39.972Z,99904.42
2022-09-24T16:40:08.547Z,99903.95
2022-09-24T16:42:36.619Z,99904.25
2022-09-24T16:45:04.463Z,99903.92
2022-09-24T16:47:32.253Z,99899.60
2022-09-24T16:50:00.037Z,99900.60
2022-09-24T16:52:30.679Z,99896.86
2022-09-24T16:54:58.830Z,99895.98
2022-09-24T16:57:27.086Z,99900.82
2022-09-24T16:59:54.789Z,99894.83
2022-09-24T17:02:22.309Z,99895.32
2022-09-24T17:04:50.019Z,99891.26
2022-09-24T17:07:17.549Z,99892.05
2022-09-24T17:10:03.562Z,99891.94
2022-09-24T17:12:30.782Z,99892.08
2022-09-24T17:14:58.932Z,99892.27
2022-09-24T17:17:26.456Z,99893.27
2022-09-24T17:19:53.971Z,99892.98
2022-09-24T17:22:21.232Z,99896.73
2022-09-24T17:24:49.527Z,99900.73
2022-09-24T17:27:17.269Z,99898.09
2022-09-24T17:29:45.950Z,99897.36
2022-09-24T17:32:13.519Z,99898.19
2022-09-24T17:34:45.703Z,99898.29
2022-09-24T17:37:13.672Z,99898.94
2022-09-24T17:39:42.226Z,99899.16
2022-09-24T17:42:09.488Z,99900.17
2022-09-24T17:44:37.551Z,99902.52
2022-09-24T17:47:05.373Z,99903.15
2022-09-24T17:49:33.210Z,99903.27
2022-09-24T17:52:02.908Z,99909.05
2022-09-24T17:54:30.460Z,99909.77
2022-09-24T17:56:59.338Z,99914.06
2022-09-24T17:59:27.227Z,99911.64
2022-09-24T18:01:55.091Z,99914.41
2022-09-24T18:04:23.044Z,99914.35
2022-09-24T18:06:51.008Z,99919.09
2022-09-24T18:09:19.332Z,99918.00
2022-09-24T18:11:55.450Z,99921.55
2022-09-24T18:14:23.573Z,99924.86
2022-09-24T18:16:51.607Z,99922.31
2022-09-24T18:19:19.279Z,99923.73
2022-09-24T18:21:48.743Z,99926.73
2022-09-24T18:24:17.829Z,99924.36
2022-09-24T18:26:49.532Z,99921.41
2022-09-24T18:29:19.738Z,99926.16
2022-09-24T18:31:47.629Z,99927.27
2022-09-24T18:34:16.300Z,99924.23
2022-09-24T18:36:44.764Z,99919.44
2022-09-24T18:39:17.683Z,99918.01
2022-09-24T18:41:47.462Z,99918.65
2022-09-24T18:44:15.730Z,99918.18
2022-09-24T18:46:43.432Z,99923.54
2022-09-24T18:49:12.185Z,99926.16
2022-09-24T18:51:39.874Z,99930.27
2022-09-24T18:54:12.728Z,99929.27
2022-09-24T18:56:40.800Z,99928.27
2022-09-24T18:59:13.655Z,99932.67
2022-09-24T19:01:42.600Z,99929.26
2022-09-24T19:04:11.149Z,99927.04
2022-09-24T19:06:41.039Z,99925.04
2022-09-24T19:09:09.628Z,99925.79
2022-09-24T19:11:37.927Z,99927.59
2022-09-24T19:14:06.184Z,99930.41
2022-09-24T19:16:34.127Z,99930.26
2022-09-24T19:19:02.522Z,99929.01
2022-09-24T19:21:30.508Z,99930.82
2022-09-24T19:24:00.041Z,99930.89
2022-09-24T19:26:29.742Z,99931.85
2022-09-24T19:28:57.713Z,99934.11
2022-09-24T19:31:28.380Z,99935.52
2022-09-24T19:33:56.719Z,99933.86
2022-09-24T19:36:25.865Z,99935.23
2022-09-24T19:38:55.101Z,99934.88
2022-09-24T19:41:28.025Z,99937.65
2022-09-24T19:44:03.236Z,99941.51
2022-09-24T19:46:34.491Z,99937.68
2022-09-24T19:49:02.921Z,99938.98
2022-09-24T19:51:32.961Z,99939.34
2022-09-24T19:54:03.932Z,99939.91
2022-09-24T19:56:32.505Z,99945.44
2022-09-24T19:59:02.230Z,99948.36
2022-09-24T20:01:33.373Z,99945.77
2022-09-24T20:04:07.816Z,99944.95
2022-09-24T20:06:38.616Z,99946.44
2022-09-24T20:09:07.113Z,99947.85
2022-09-24T20:11:35.044Z,99947.46
2022-09-24T20:14:09.215Z,99944.02
2022-09-24T20:16:37.230Z,99942.30
2022-09-24T20:19:05.465Z,99938.75
2022-09-24T20:21:35.571Z,99939.65
2022-09-24T20:24:04.766Z,99935.71
2022-09-24T20:26:51.787Z,99939.54
2022-09-24T20:29:22.395Z,99943.42
2022-09-24T20:31:53.194Z,99947.98
2022-09-24T20:34:34.078Z,99944.31
2022-09-24T20:37:04.788Z,99944.23
2022-09-24T20:39:32.837Z,99941.35
2022-09-24T20:42:04.164Z,99941.85
2022-09-24T20:44:32.228Z,99939.00
2022-09-24T20:47:00.195Z,99939.45
2022-09-24T20:49:28.695Z,99939.15
2022-09-24T20:51:57.857Z,99939.00
2022-09-24T20:54:27.331Z,99935.81
2022-09-24T20:56:54.862Z,99941.77
2022-09-24T20:59:22.250Z,99936.14
2022-09-24T21:01:49.829Z,99937.22
2022-09-24T21:04:20.457Z,99935.20
2022-09-24T21:06:48.355Z,99934.54
2022-09-24T21:09:17.461Z,99935.84
2022-09-24T21:11:44.820Z,99936.80
2022-09-24T21:14:13.103Z,99934.73
2022-09-24T21:16:42.119Z,99938.28
2022-09-24T21:19:10.027Z,99932.59
2022-09-24T21:21:39.470Z,99929.89
2022-09-24T21:24:10.027Z,99926.84
2022-09-24T21:26:39.370Z,99927.96
2022-09-24T21:29:16.876Z,99922.27
2022-09-24T21:31:46.874Z,99925.38
2022-09-24T21:34:16.722Z,99923.46
2022-09-24T21:36:45.954Z,99921.39
2022-09-24T21:39:23.507Z,99916.96
2022-09-24T21:41:53.910Z,99919.27
2022-09-24T21:44:21.852Z,99916.77
2022-09-24T21:46:53.039Z,99916.52
2022-09-24T21:49:20.770Z,99915.82
2022-09-24T21:51:48.430Z,99914.34
2022-09-24T21:54:17.696Z,99914.08
2022-09-24T21:56:46.149Z,99913.06
2022-09-24T21:59:32.721Z,99917.60
2022-09-24T22:01:59.916Z,99918.20
2022-09-24T22:04:28.481Z,99920.23
2022-09-24T22:06:55.709Z,99922.95
2022-09-24T22:09:24.689Z,99924.14
2022-09-24T22:11:54.088Z,99923.02
2022-09-24T22:14:21.448Z,99916.67
2022-09-24T22:16:49.347Z,99917.42
2022-09-24T22:19:17.362Z,99922.80
2022-09-24T22:21:44.930Z,99921.61
2022-09-24T22:24:12.480Z,99921.67
2022-09-24T22:26:41.485Z,99918.27
2022-09-24T22:29:09.048Z,99915.02
2022-09-24T22:31:36.198Z,99916.59
2022-09-24T22:34:22.215Z,99916.23
2022-09-24T22:36:49.539Z,99914.42
2022-09-24T22:39:17.109Z,99915.86
2022-09-24T22:41:44.272Z,99913.52
2022-09-24T22:44:12.702Z,99910.63
2022-09-24T22:46:42.079Z,99905.27
2022-09-24T22:49:11.225Z,99902.80
2022-09-24T22:51:39.698Z,99898.80
2022-09-24T22:54:08.345Z,99903.22
2022-09-24T22:56:36.556Z,99900.73
2022-09-24T22:59:04.097Z,99899.55
2022-09-24T23:01:39.834Z,99897.41
2022-09-24T23:04:07.465Z,99897.25
2022-09-24T23:06:35.318Z,99895.11
2022-09-24T23:09:02.867Z,99899.00
2022-09-24T23:11:32.562Z,99900.86
2022-09-24T23:14:02.858Z,99900.92
2022-09-24T23:16:32.687Z,99902.14
2022-09-24T23:19:01.613Z,99902.84
2022-09-24T23:21:30.907Z,99900.92
2022-09-24T23:24:01.424Z,99901.56
2022-09-24T23:26:31.739Z,99903.63
2022-09-24T23:29:00.849Z,99905.81
2022-09-24T23:31:34.748Z,99902.13
2022-09-24T23:34:02.115Z,99899.47
2022-09-24T23:36:33.916Z,99897.45
2022-09-24T23:39:02.234Z,99900.20
2022-09-24T23:41:32.110Z,99897.23
2022-09-24T23:44:02.002Z,99896.30
2022-09-24T23:46:29.175Z,99897.43
2022-09-24T23:48:57.288Z,99899.56
2022-09-24T23:51:24.954Z,99898.88
2022-09-24T23:53:53.128Z,99899.08
2022-09-24T23:56:20.984Z,99900.35
2022-09-24T23:58:48.354Z,99900.68
